Time;durP1;ratioP1;P1;durP2;ratioP2;P2;SDS_P1;SDS_P2;PMS_P1;PMS_P2;Temp;Humidity;BMP_temperature;BMP_pressure;BME280_temperature;BME280_humidity;BME280_pressure;Samples;Min_cycle;Max_cycle;Signal;HPM_P1;HPM_P2
2021/08/10 00:00:56;;;;;;;4.03;1.50;;;;;;;;;;5054042;28;20471;-75
2021/08/10 00:03:22;;;;;;;4.75;1.48;;;;;;;;;;5071935;28;20543;-75
2021/08/10 00:05:48;;;;;;;3.50;1.42;;;;;;;;;;5071800;28;20166;-75
2021/08/10 00:08:15;;;;;;;5.50;1.52;;;;;;;;;;5053916;28;20099;-80
2021/08/10 00:10:43;;;;;;;8.30;1.67;;;;;;;;;;5053885;28;20471;-74
2021/08/10 00:13:09;;;;;;;10.30;1.75;;;;;;;;;;5071615;28;20028;-75
2021/08/10 00:15:35;;;;;;;5.75;1.35;;;;;;;;;;5070877;28;20155;-77
2021/08/10 00:18:01;;;;;;;5.07;1.42;;;;;;;;;;5052821;28;20419;-75
2021/08/10 00:20:27;;;;;;;4.55;1.35;;;;;;;;;;5050885;28;20024;-75
2021/08/10 00:22:53;;;;;;;2.88;1.30;;;;;;;;;;5032749;28;20107;-77
2021/08/10 00:25:19;;;;;;;5.50;1.42;;;;;;;;;;5032940;28;20075;-75
2021/08/10 00:27:46;;;;;;;5.40;1.38;;;;;;;;;;5050122;28;20041;-78
2021/08/10 00:30:12;;;;;;;6.55;1.40;;;;;;;;;;5050588;28;20027;-77
2021/08/10 00:32:38;;;;;;;4.72;1.30;;;;;;;;;;5050452;28;20056;-78
2021/08/10 00:35:04;;;;;;;3.42;1.20;;;;;;;;;;5032132;28;20025;-80
2021/08/10 00:37:30;;;;;;;3.97;1.20;;;;;;;;;;5032106;28;20431;-78
2021/08/10 00:39:56;;;;;;;3.42;1.23;;;;;;;;;;5050409;28;20013;-74
2021/08/10 00:42:22;;;;;;;4.30;1.15;;;;;;;;;;5050174;28;20025;-76
2021/08/10 00:44:48;;;;;;;3.47;1.40;;;;;;;;;;5032483;28;20025;-80
2021/08/10 00:47:14;;;;;;;4.28;1.25;;;;;;;;;;5036079;28;20488;-78
2021/08/10 00:49:41;;;;;;;5.57;1.30;;;;;;;;;;5053926;28;20044;-80
2021/08/10 00:52:07;;;;;;;5.68;1.38;;;;;;;;;;5053512;28;20013;-79
2021/08/10 00:54:33;;;;;;;6.60;1.17;;;;;;;;;;5053971;28;20020;-78
2021/08/10 00:56:59;;;;;;;3.45;1.05;;;;;;;;;;5069091;28;20020;-80
2021/08/10 00:59:25;;;;;;;3.50;1.10;;;;;;;;;;5069157;28;20029;-79
2021/08/10 01:01:52;;;;;;;4.35;1.58;;;;;;;;;;5068973;28;20009;-75
2021/08/10 01:04:18;;;;;;;3.90;1.05;;;;;;;;;;5068642;28;20472;-76
2021/08/10 01:06:53;;;;;;;3.45;1.33;;;;;;;;;;5053491;28;20034;-75
2021/08/10 01:09:43;;;;;;;2.53;1.10;;;;;;;;;;5066990;28;20010;-74
2021/08/10 01:12:13;;;;;;;4.45;1.30;;;;;;;;;;5046192;28;20044;-75
2021/08/10 01:14:58;;;;;;;4.35;1.23;;;;;;;;;;5063002;28;20056;-74
2021/08/10 01:17:31;;;;;;;4.10;1.42;;;;;;;;;;5034908;28;20091;-76
2021/08/10 01:20:20;;;;;;;9.05;1.73;;;;;;;;;;5033723;28;20022;-74
2021/08/10 01:22:48;;;;;;;4.13;1.50;;;;;;;;;;5033530;28;20107;-74
2021/08/10 01:25:17;;;;;;;5.40;1.23;;;;;;;;;;5033507;28;20041;-74
2021/08/10 01:27:50;;;;;;;6.07;1.27;;;;;;;;;;5034510;28;20078;-74
2021/08/10 01:30:18;;;;;;;6.55;1.10;;;;;;;;;;5033478;28;20026;-74
2021/08/10 01:32:46;;;;;;;4.65;1.33;;;;;;;;;;5035010;28;20026;-74
2021/08/10 01:35:13;;;;;;;4.63;1.10;;;;;;;;;;5034717;28;20381;-74
2021/08/10 01:37:40;;;;;;;2.63;1.00;;;;;;;;;;5033321;28;20025;-74
2021/08/10 01:40:10;;;;;;;4.35;1.10;;;;;;;;;;5034659;28;20100;-74
2021/08/10 01:42:38;;;;;;;4.30;1.38;;;;;;;;;;5034387;28;20052;-74
2021/08/10 01:45:05;;;;;;;4.20;1.20;;;;;;;;;;5033010;28;20056;-80
2021/08/10 01:47:32;;;;;;;4.63;1.60;;;;;;;;;;5034389;28;20052;-74
2021/08/10 01:50:01;;;;;;;5.22;1.35;;;;;;;;;;5034204;28;20032;-74
2021/08/10 01:52:28;;;;;;;3.28;1.67;;;;;;;;;;5032931;28;20112;-79
2021/08/10 01:54:54;;;;;;;3.35;1.00;;;;;;;;;;5032814;28;20488;-77
2021/08/10 01:57:21;;;;;;;4.03;1.38;;;;;;;;;;5033372;28;20488;-74
2021/08/10 01:59:48;;;;;;;3.70;1.20;;;;;;;;;;5032931;28;20028;-75
2021/08/10 02:02:14;;;;;;;3.53;1.15;;;;;;;;;;5034143;28;20030;-75
2021/08/10 02:04:41;;;;;;;4.07;1.25;;;;;;;;;;5033796;28;20116;-74
2021/08/10 02:07:07;;;;;;;3.00;1.10;;;;;;;;;;5033994;28;20057;-74
2021/08/10 02:09:34;;;;;;;5.70;1.17;;;;;;;;;;5033929;28;20036;-75
2021/08/10 02:12:01;;;;;;;2.00;0.90;;;;;;;;;;5033928;28;20024;-74
2021/08/10 02:14:28;;;;;;;2.40;0.90;;;;;;;;;;5037809;28;20044;-74
2021/08/10 02:16:56;;;;;;;4.88;1.20;;;;;;;;;;5053556;28;20377;-75
2021/08/10 02:19:22;;;;;;;3.85;1.23;;;;;;;;;;5068715;28;20032;-75
2021/08/10 02:21:49;;;;;;;3.65;1.42;;;;;;;;;;5068741;28;20163;-74
2021/08/10 02:24:24;;;;;;;4.07;1.20;;;;;;;;;;5053218;28;20472;-75
2021/08/10 02:26:59;;;;;;;2.92;1.30;;;;;;;;;;5053276;28;20100;-74
2021/08/10 02:29:27;;;;;;;3.88;1.27;;;;;;;;;;5068749;28;20024;-75
2021/08/10 02:31:53;;;;;;;2.95;1.35;;;;;;;;;;5068821;28;20025;-75
2021/08/10 02:34:20;;;;;;;4.95;1.27;;;;;;;;;;5053378;28;20100;-75
2021/08/10 02:36:46;;;;;;;3.55;1.35;;;;;;;;;;5068753;28;20065;-76
2021/08/10 02:39:13;;;;;;;3.97;0.98;;;;;;;;;;5053386;28;20032;-74
2021/08/10 02:41:40;;;;;;;4.60;1.00;;;;;;;;;;5053310;28;20017;-79
2021/08/10 02:44:07;;;;;;;5.68;1.17;;;;;;;;;;5068577;28;20040;-74
2021/08/10 02:46:33;;;;;;;5.75;1.55;;;;;;;;;;5068298;28;20024;-74
2021/08/10 02:48:59;;;;;;;4.53;1.25;;;;;;;;;;5052926;28;20025;-74
2021/08/10 02:51:25;;;;;;;2.78;1.10;;;;;;;;;;5068496;28;20025;-77
2021/08/10 02:53:51;;;;;;;4.50;1.00;;;;;;;;;;5053057;28;20029;-74
2021/08/10 02:56:28;;;;;;;5.05;1.52;;;;;;;;;;5068367;28;20029;-78
2021/08/10 02:59:04;;;;;;;5.85;1.33;;;;;;;;;;5048865;28;20031;-74
2021/08/10 03:01:32;;;;;;;5.13;1.15;;;;;;;;;;5052776;28;20028;-77
2021/08/10 03:03:59;;;;;;;2.85;1.20;;;;;;;;;;5052812;28;20112;-76
2021/08/10 03:06:26;;;;;;;3.17;1.30;;;;;;;;;;5052726;28;20533;-75
2021/08/10 03:08:58;;;;;;;3.53;1.17;;;;;;;;;;5052083;28;20108;-77
2021/08/10 03:11:24;;;;;;;3.90;1.35;;;;;;;;;;5067843;28;20025;-75
2021/08/10 03:13:51;;;;;;;3.50;1.27;;;;;;;;;;5052607;28;20055;-81
2021/08/10 03:16:17;;;;;;;4.88;1.10;;;;;;;;;;5067705;28;20526;-78
2021/08/10 03:18:46;;;;;;;4.43;1.60;;;;;;;;;;5067932;28;20029;-74
2021/08/10 03:21:12;;;;;;;7.35;1.60;;;;;;;;;;5068101;28;20436;-75
2021/08/10 03:23:40;;;;;;;5.32;1.52;;;;;;;;;;5052358;28;20021;-78
2021/08/10 03:26:07;;;;;;;3.17;1.10;;;;;;;;;;5052383;28;20087;-75
2021/08/10 03:28:39;;;;;;;3.50;1.33;;;;;;;;;;5067789;28;20166;-74
2021/08/10 03:31:05;;;;;;;5.13;1.08;;;;;;;;;;5052487;28;20048;-75
2021/08/10 03:33:32;;;;;;;3.85;1.15;;;;;;;;;;5067710;28;20031;-81
2021/08/10 03:35:58;;;;;;;2.95;1.10;;;;;;;;;;5067731;28;20033;-74
2021/08/10 03:38:25;;;;;;;5.60;1.42;;;;;;;;;;5052137;28;20021;-76
2021/08/10 03:40:51;;;;;;;5.03;1.35;;;;;;;;;;5067576;28;20445;-74
2021/08/10 03:43:18;;;;;;;3.22;1.20;;;;;;;;;;5052143;28;20049;-75
2021/08/10 03:45:44;;;;;;;5.22;1.67;;;;;;;;;;5052186;28;20044;-81
2021/08/10 03:48:12;;;;;;;2.85;1.13;;;;;;;;;;5067467;28;20021;-78
2021/08/10 03:50:39;;;;;;;3.90;1.40;;;;;;;;;;5052209;28;20035;-82
2021/08/10 03:53:05;;;;;;;4.53;1.30;;;;;;;;;;5051976;28;20399;-77
2021/08/10 03:55:32;;;;;;;4.88;1.58;;;;;;;;;;5067408;28;20056;-74
2021/08/10 03:57:59;;;;;;;3.13;1.40;;;;;;;;;;5067410;28;20026;-74
2021/08/10 04:00:25;;;;;;;4.00;1.30;;;;;;;;;;5051988;28;20025;-75
2021/08/10 04:02:53;;;;;;;4.35;1.60;;;;;;;;;;5051851;28;20146;-75
2021/08/10 04:05:19;;;;;;;6.38;1.42;;;;;;;;;;5051889;28;20120;-80
2021/08/10 04:07:46;;;;;;;4.28;1.50;;;;;;;;;;5051800;28;20498;-78
2021/08/10 04:10:12;;;;;;;3.15;1.10;;;;;;;;;;5051938;28;20048;-74
2021/08/10 04:12:38;;;;;;;4.63;1.80;;;;;;;;;;5067295;28;20021;-74
2021/08/10 04:15:08;;;;;;;2.95;1.30;;;;;;;;;;5051448;28;20044;-78
2021/08/10 04:17:36;;;;;;;5.20;1.50;;;;;;;;;;5051487;28;20028;-81
2021/08/10 04:20:02;;;;;;;4.03;1.65;;;;;;;;;;5053663;28;20048;-74
2021/08/10 04:22:30;;;;;;;4.38;1.40;;;;;;;;;;5054746;28;20055;-76
2021/08/10 04:24:56;;;;;;;6.55;1.58;;;;;;;;;;5055824;28;20029;-75
2021/08/10 04:27:22;;;;;;;4.88;1.48;;;;;;;;;;5055678;28;20028;-74
2021/08/10 04:29:48;;;;;;;4.13;1.77;;;;;;;;;;5071173;28;20165;-74
2021/08/10 04:32:14;;;;;;;4.15;1.88;;;;;;;;;;5071104;28;20021;-74
2021/08/10 04:34:41;;;;;;;8.30;2.15;;;;;;;;;;5070878;28;20021;-74
2021/08/10 04:37:07;;;;;;;5.15;1.42;;;;;;;;;;5070886;28;20036;-81
2021/08/10 04:39:33;;;;;;;6.22;1.50;;;;;;;;;;5070799;28;20025;-74
2021/08/10 04:41:59;;;;;;;4.63;1.45;;;;;;;;;;5055547;28;20401;-73
2021/08/10 04:44:25;;;;;;;5.53;1.80;;;;;;;;;;5070702;28;20040;-74
2021/08/10 04:46:51;;;;;;;6.90;1.70;;;;;;;;;;5055156;28;20361;-74
2021/08/10 04:49:17;;;;;;;5.55;1.90;;;;;;;;;;5055188;28;20028;-74
2021/08/10 04:51:43;;;;;;;6.50;2.00;;;;;;;;;;5055252;28;20147;-73
2021/08/10 04:54:16;;;;;;;4.60;1.88;;;;;;;;;;5055304;28;20036;-80
2021/08/10 04:56:42;;;;;;;4.05;1.52;;;;;;;;;;5070750;28;20127;-81
2021/08/10 04:59:08;;;;;;;4.90;1.80;;;;;;;;;;5055306;28;20017;-75
2021/08/10 05:01:34;;;;;;;6.53;2.08;;;;;;;;;;5055115;28;20079;-80
2021/08/10 05:04:00;;;;;;;5.70;2.00;;;;;;;;;;5070269;28;20025;-74
2021/08/10 05:06:26;;;;;;;7.53;2.17;;;;;;;;;;5070228;28;20025;-74
2021/08/10 05:08:52;;;;;;;7.43;2.10;;;;;;;;;;5054928;28;20055;-74
2021/08/10 05:11:19;;;;;;;6.80;2.47;;;;;;;;;;5054961;28;20055;-73
2021/08/10 05:13:45;;;;;;;6.88;1.92;;;;;;;;;;5055041;28;20023;-75
2021/08/10 05:16:11;;;;;;;6.20;2.08;;;;;;;;;;5055130;28;20068;-78
2021/08/10 05:18:37;;;;;;;4.03;1.98;;;;;;;;;;5055221;28;20029;-74
2021/08/10 05:21:03;;;;;;;7.07;1.58;;;;;;;;;;5070539;28;20029;-83
2021/08/10 05:23:33;;;;;;;5.85;2.17;;;;;;;;;;5070142;28;20025;-74
2021/08/10 05:25:59;;;;;;;4.40;2.13;;;;;;;;;;5069880;28;20506;-73
2021/08/10 05:28:25;;;;;;;6.07;2.20;;;;;;;;;;5054681;28;20100;-75
2021/08/10 05:30:51;;;;;;;10.85;2.50;;;;;;;;;;5054088;28;20032;-73
2021/08/10 05:33:17;;;;;;;13.18;3.08;;;;;;;;;;5070009;28;20017;-81
2021/08/10 05:35:44;;;;;;;10.65;2.42;;;;;;;;;;5070038;28;20163;-73
2021/08/10 05:38:10;;;;;;;8.00;2.63;;;;;;;;;;5054536;28;20417;-74
2021/08/10 05:40:36;;;;;;;7.70;2.65;;;;;;;;;;5054591;28;20031;-73
2021/08/10 05:43:02;;;;;;;9.55;2.15;;;;;;;;;;5054916;28;20357;-74
2021/08/10 05:45:28;;;;;;;10.32;2.65;;;;;;;;;;5070950;28;20091;-73
2021/08/10 05:47:54;;;;;;;9.00;2.83;;;;;;;;;;5069225;28;20021;-73
2021/08/10 05:50:20;;;;;;;9.05;2.58;;;;;;;;;;5054035;28;20423;-78
2021/08/10 05:52:46;;;;;;;6.53;2.40;;;;;;;;;;5069557;28;20025;-74
2021/08/10 05:55:12;;;;;;;9.35;2.47;;;;;;;;;;5054168;28;20099;-74
2021/08/10 05:57:38;;;;;;;10.10;2.80;;;;;;;;;;5053920;28;20028;-78
2021/08/10 06:00:05;;;;;;;6.80;2.70;;;;;;;;;;5053849;28;20021;-75
2021/08/10 06:02:31;;;;;;;9.25;2.33;;;;;;;;;;5053910;28;20036;-76
2021/08/10 06:04:57;;;;;;;7.47;2.83;;;;;;;;;;5054078;28;20453;-74
2021/08/10 06:07:23;;;;;;;7.65;2.65;;;;;;;;;;5053946;28;20017;-73
2021/08/10 06:09:49;;;;;;;10.40;3.00;;;;;;;;;;5053807;28;20024;-74
2021/08/10 06:12:15;;;;;;;8.45;2.30;;;;;;;;;;5069053;28;20017;-74
2021/08/10 06:14:41;;;;;;;6.22;2.63;;;;;;;;;;5059831;28;20514;-74
2021/08/10 06:17:07;;;;;;;9.57;2.30;;;;;;;;;;5033738;28;20111;-81
2021/08/10 06:19:33;;;;;;;8.80;2.83;;;;;;;;;;5049056;28;20021;-81
2021/08/10 06:22:00;;;;;;;8.70;2.13;;;;;;;;;;5049255;28;20021;-82
2021/08/10 06:24:27;;;;;;;8.90;2.22;;;;;;;;;;5048843;28;20030;-74
2021/08/10 06:26:54;;;;;;;7.05;2.15;;;;;;;;;;5048766;28;20033;-74
2021/08/10 06:29:20;;;;;;;7.95;2.70;;;;;;;;;;5049016;28;20121;-74
2021/08/10 06:31:46;;;;;;;7.65;2.50;;;;;;;;;;5048975;28;20520;-73
2021/08/10 06:34:12;;;;;;;11.32;2.67;;;;;;;;;;5033598;28;20021;-74
2021/08/10 06:36:39;;;;;;;7.80;2.45;;;;;;;;;;5048641;28;20087;-73
2021/08/10 06:39:06;;;;;;;9.20;2.40;;;;;;;;;;5033448;28;20018;-74
2021/08/10 06:41:32;;;;;;;7.10;2.45;;;;;;;;;;5048702;28;20029;-73
2021/08/10 06:43:58;;;;;;;14.07;3.03;;;;;;;;;;5032180;28;20048;-81
2021/08/10 06:46:25;;;;;;;10.43;3.10;;;;;;;;;;5048106;28;20057;-73
2021/08/10 06:48:51;;;;;;;10.90;2.55;;;;;;;;;;5033417;28;20036;-74
2021/08/10 06:51:17;;;;;;;10.48;2.78;;;;;;;;;;5033301;28;20021;-74
2021/08/10 06:53:43;;;;;;;7.72;2.63;;;;;;;;;;5048423;28;20024;-77
2021/08/10 06:56:09;;;;;;;12.32;2.58;;;;;;;;;;5033134;28;20025;-77
2021/08/10 06:58:35;;;;;;;10.40;2.95;;;;;;;;;;5033166;28;20021;-75
2021/08/10 07:01:01;;;;;;;7.75;2.80;;;;;;;;;;5033000;28;20026;-75
2021/08/10 07:03:27;;;;;;;6.72;2.47;;;;;;;;;;5048245;28;20025;-74
2021/08/10 07:05:53;;;;;;;8.43;2.15;;;;;;;;;;5032944;28;20033;-79
2021/08/10 07:08:19;;;;;;;15.13;3.15;;;;;;;;;;5048106;28;20028;-74
2021/08/10 07:10:46;;;;;;;7.28;2.00;;;;;;;;;;5032920;28;20099;-74
2021/08/10 07:13:12;;;;;;;12.45;2.38;;;;;;;;;;5048099;28;20085;-74
2021/08/10 07:15:38;;;;;;;6.97;2.33;;;;;;;;;;5044578;28;20045;-77
2021/08/10 07:18:04;;;;;;;5.78;2.35;;;;;;;;;;5034948;28;20591;-74
2021/08/10 07:20:30;;;;;;;7.32;1.80;;;;;;;;;;5052477;28;20515;-74
2021/08/10 07:22:56;;;;;;;10.02;1.65;;;;;;;;;;5052557;28;20021;-75
2021/08/10 07:25:22;;;;;;;13.93;2.10;;;;;;;;;;5052285;28;20115;-75
2021/08/10 07:27:48;;;;;;;6.10;1.67;;;;;;;;;;5034402;28;20029;-78
2021/08/10 07:30:14;;;;;;;6.47;1.55;;;;;;;;;;5052567;28;20391;-74
2021/08/10 07:32:40;;;;;;;6.18;1.58;;;;;;;;;;5034606;28;20025;-84
2021/08/10 07:35:08;;;;;;;7.30;1.60;;;;;;;;;;5052832;28;20029;-74
2021/08/10 07:37:38;;;;;;;6.90;1.63;;;;;;;;;;5052787;28;20377;-83
2021/08/10 07:40:05;;;;;;;6.38;1.50;;;;;;;;;;5037387;28;20029;-79
2021/08/10 07:42:31;;;;;;;6.22;1.80;;;;;;;;;;5054597;28;20017;-85
2021/08/10 07:44:57;;;;;;;8.77;2.13;;;;;;;;;;5036144;28;20038;-85
2021/08/10 07:47:23;;;;;;;8.48;1.48;;;;;;;;;;5053109;28;20025;-82
2021/08/10 07:49:49;;;;;;;6.70;1.40;;;;;;;;;;5052916;28;20523;-83
2021/08/10 07:52:15;;;;;;;6.32;1.75;;;;;;;;;;5035365;28;20045;-78
2021/08/10 07:54:42;;;;;;;4.13;1.40;;;;;;;;;;5035632;28;20028;-79
2021/08/10 07:57:08;;;;;;;11.13;1.80;;;;;;;;;;5035190;28;20029;-81
2021/08/10 07:59:34;;;;;;;3.92;1.67;;;;;;;;;;5033991;28;20044;-78
2021/08/10 08:02:00;;;;;;;7.03;1.60;;;;;;;;;;5052654;28;20108;-85
2021/08/10 08:04:26;;;;;;;9.60;1.40;;;;;;;;;;5052374;28;20028;-77
2021/08/10 08:06:52;;;;;;;3.72;1.52;;;;;;;;;;5052018;28;20017;-74
2021/08/10 08:09:18;;;;;;;4.25;1.40;;;;;;;;;;5052138;28;20025;-74
2021/08/10 08:11:44;;;;;;;7.85;1.30;;;;;;;;;;5051925;28;20445;-74
2021/08/10 08:14:11;;;;;;;3.28;1.27;;;;;;;;;;5033954;28;20450;-81
2021/08/10 08:16:37;;;;;;;4.15;1.40;;;;;;;;;;5033898;28;20033;-81
2021/08/10 08:19:03;;;;;;;4.55;1.75;;;;;;;;;;5051446;28;20010;-76
2021/08/10 08:21:29;;;;;;;4.50;1.60;;;;;;;;;;5051636;28;20079;-75
2021/08/10 08:23:55;;;;;;;6.38;1.40;;;;;;;;;;5033530;28;20388;-74
2021/08/10 08:26:22;;;;;;;5.53;1.20;;;;;;;;;;5049744;28;20051;-81
2021/08/10 08:28:48;;;;;;;4.38;1.58;;;;;;;;;;5027290;28;20014;-82
2021/08/10 08:31:14;;;;;;;6.40;1.60;;;;;;;;;;5032008;28;20492;-82
2021/08/10 08:33:40;;;;;;;3.75;1.40;;;;;;;;;;5033917;28;20389;-77
2021/08/10 08:36:06;;;;;;;11.27;1.73;;;;;;;;;;5050879;28;20025;-83
2021/08/10 08:38:33;;;;;;;4.38;1.50;;;;;;;;;;5046534;28;20107;-77
2021/08/10 08:40:59;;;;;;;10.13;1.48;;;;;;;;;;5051136;28;20112;-80
2021/08/10 08:43:25;;;;;;;6.95;1.65;;;;;;;;;;5050105;28;20065;-80
2021/08/10 08:45:51;;;;;;;5.72;1.30;;;;;;;;;;5043477;28;20044;-78
2021/08/10 08:48:17;;;;;;;5.35;1.67;;;;;;;;;;5050625;28;20464;-74
2021/08/10 08:50:44;;;;;;;9.60;1.27;;;;;;;;;;5051019;28;20056;-76
2021/08/10 08:53:14;;;;;;;3.97;1.60;;;;;;;;;;5033679;28;20543;-79
2021/08/10 08:55:44;;;;;;;12.27;1.92;;;;;;;;;;5053785;28;20021;-76
2021/08/10 08:58:11;;;;;;;9.90;1.52;;;;;;;;;;5070626;28;20031;-84
2021/08/10 09:00:37;;;;;;;5.32;1.33;;;;;;;;;;5052957;28;20371;-83
2021/08/10 09:03:03;;;;;;;6.05;1.48;;;;;;;;;;5052788;28;20028;-75
2021/08/10 09:05:32;;;;;;;6.03;1.10;;;;;;;;;;5052916;28;20036;-76
2021/08/10 09:07:59;;;;;;;4.88;1.40;;;;;;;;;;5073894;28;20021;-79
2021/08/10 09:10:29;;;;;;;5.15;1.60;;;;;;;;;;5075146;28;20081;-76
2021/08/10 09:12:56;;;;;;;3.10;1.30;;;;;;;;;;5074916;28;20479;-76
2021/08/10 09:15:30;;;;;;;4.53;1.33;;;;;;;;;;5056629;28;20048;-75
2021/08/10 09:17:56;;;;;;;2.85;1.27;;;;;;;;;;5056796;28;20522;-75
2021/08/10 09:20:23;;;;;;;4.80;1.50;;;;;;;;;;5056729;28;20029;-77
2021/08/10 09:22:51;;;;;;;5.82;1.70;;;;;;;;;;5074949;28;20057;-75
2021/08/10 09:25:17;;;;;;;5.25;1.67;;;;;;;;;;5074687;28;20036;-76
2021/08/10 09:27:44;;;;;;;5.22;1.40;;;;;;;;;;5074555;28;20074;-76
2021/08/10 09:30:10;;;;;;;3.47;1.48;;;;;;;;;;5074685;28;20055;-80
2021/08/10 09:32:54;;;;;;;6.28;1.42;;;;;;;;;;5074390;28;20103;-75
2021/08/10 09:35:21;;;;;;;3.08;1.40;;;;;;;;;;5056466;28;20024;-81
2021/08/10 09:38:04;;;;;;;5.65;1.60;;;;;;;;;;5074473;28;20025;-75
2021/08/10 09:40:35;;;;;;;4.72;1.60;;;;;;;;;;5074558;28;20021;-75
2021/08/10 09:43:21;;;;;;;5.85;1.63;;;;;;;;;;5056294;28;20175;-76
2021/08/10 09:45:47;;;;;;;3.67;1.50;;;;;;;;;;5056141;28;20060;-76
2021/08/10 09:48:14;;;;;;;5.55;1.75;;;;;;;;;;5074303;28;20024;-76
2021/08/10 09:50:40;;;;;;;9.02;2.58;;;;;;;;;;5056167;28;20024;-74
2021/08/10 09:53:16;;;;;;;3.65;1.60;;;;;;;;;;5056084;28;20020;-81
2021/08/10 09:55:54;;;;;;;3.67;1.45;;;;;;;;;;5055680;28;20170;-76
2021/08/10 09:58:20;;;;;;;4.72;1.70;;;;;;;;;;5055870;28;20111;-79
2021/08/10 10:00:46;;;;;;;4.22;1.52;;;;;;;;;;5074014;28;20024;-75
2021/08/10 10:03:24;;;;;;;4.88;1.40;;;;;;;;;;5073797;28;20021;-77
2021/08/10 10:05:50;;;;;;;6.05;1.80;;;;;;;;;;5055601;28;20036;-76
2021/08/10 10:08:16;;;;;;;3.40;1.58;;;;;;;;;;5073738;28;20430;-75
2021/08/10 10:10:43;;;;;;;4.15;1.70;;;;;;;;;;5073581;28;20024;-76
2021/08/10 10:13:13;;;;;;;3.70;1.30;;;;;;;;;;5055814;28;20108;-81
2021/08/10 10:15:40;;;;;;;4.63;1.63;;;;;;;;;;5073618;28;20480;-76
2021/08/10 10:18:07;;;;;;;10.40;2.08;;;;;;;;;;5073665;28;20034;-75
2021/08/10 10:20:35;;;;;;;4.13;1.77;;;;;;;;;;5055492;28;20031;-82
2021/08/10 10:23:03;;;;;;;6.07;1.55;;;;;;;;;;5056173;28;20025;-82
2021/08/10 10:25:29;;;;;;;8.20;1.70;;;;;;;;;;5056123;28;20395;-82
2021/08/10 10:27:56;;;;;;;6.43;1.25;;;;;;;;;;5055127;28;20016;-82
2021/08/10 10:30:22;;;;;;;3.97;1.73;;;;;;;;;;5055315;28;20020;-82
2021/08/10 10:32:48;;;;;;;8.52;1.65;;;;;;;;;;5073400;28;20162;-78
2021/08/10 10:35:14;;;;;;;9.85;2.00;;;;;;;;;;5073442;28;20127;-84
2021/08/10 10:37:40;;;;;;;13.98;4.18;;;;;;;;;;5039316;28;20025;-73
2021/08/10 10:40:08;;;;;;;12.05;3.35;;;;;;;;;;5045165;28;20025;-78
2021/08/10 10:42:35;;;;;;;11.25;3.80;;;;;;;;;;5057473;28;20043;-76
2021/08/10 10:45:01;;;;;;;15.32;3.92;;;;;;;;;;5052577;28;20163;-74
2021/08/10 10:47:34;;;;;;;12.60;3.47;;;;;;;;;;5052355;28;20029;-74
2021/08/10 10:50:00;;;;;;;10.35;3.28;;;;;;;;;;5052435;28;20029;-74
2021/08/10 10:52:27;;;;;;;10.35;3.67;;;;;;;;;;5034754;28;20104;-77
2021/08/10 10:54:54;;;;;;;10.57;2.85;;;;;;;;;;5052578;28;20021;-77
2021/08/10 10:57:33;;;;;;;8.85;3.00;;;;;;;;;;5053271;28;20472;-77
2021/08/10 11:00:08;;;;;;;7.97;3.10;;;;;;;;;;5034670;28;20372;-77
2021/08/10 11:02:36;;;;;;;10.35;2.58;;;;;;;;;;5034413;28;20178;-76
2021/08/10 11:05:05;;;;;;;6.15;2.33;;;;;;;;;;5034216;28;20031;-80
2021/08/10 11:07:38;;;;;;;10.73;2.38;;;;;;;;;;5052518;28;20051;-74
2021/08/10 11:10:10;;;;;;;7.30;2.15;;;;;;;;;;5049885;28;20415;-73
2021/08/10 11:12:47;;;;;;;5.32;2.08;;;;;;;;;;5052215;28;20098;-75
2021/08/10 11:15:22;;;;;;;10.07;2.25;;;;;;;;;;5048276;28;20030;-74
2021/08/10 11:18:07;;;;;;;11.32;1.80;;;;;;;;;;5046037;28;20033;-75
2021/08/10 11:20:34;;;;;;;4.55;1.92;;;;;;;;;;5047889;28;20476;-75
2021/08/10 11:23:23;;;;;;;5.38;1.98;;;;;;;;;;5047760;28;20017;-78
2021/08/10 11:25:50;;;;;;;4.70;1.90;;;;;;;;;;5032521;28;20029;-75
2021/08/10 11:28:39;;;;;;;10.32;2.13;;;;;;;;;;5048010;28;20021;-75
2021/08/10 11:31:09;;;;;;;7.68;2.08;;;;;;;;;;5032217;28;20037;-82
2021/08/10 11:33:37;;;;;;;4.03;1.70;;;;;;;;;;5050202;28;20415;-75
2021/08/10 11:36:12;;;;;;;5.60;1.75;;;;;;;;;;5049797;28;20056;-74
2021/08/10 11:38:44;;;;;;;3.33;1.90;;;;;;;;;;5067338;28;20020;-75
2021/08/10 11:41:29;;;;;;;5.22;1.63;;;;;;;;;;5052187;28;20017;-75
2021/08/10 11:43:59;;;;;;;4.38;1.75;;;;;;;;;;5052022;28;20025;-75
2021/08/10 11:46:26;;;;;;;5.55;1.60;;;;;;;;;;5051974;28;20039;-75
2021/08/10 11:48:52;;;;;;;3.65;1.67;;;;;;;;;;5049495;28;20038;-75
2021/08/10 11:51:21;;;;;;;5.65;1.92;;;;;;;;;;5038971;28;20454;-75
2021/08/10 11:53:48;;;;;;;4.32;1.52;;;;;;;;;;5051773;28;20330;-75
2021/08/10 11:56:21;;;;;;;7.03;1.90;;;;;;;;;;5037523;28;20036;-75
2021/08/10 11:58:47;;;;;;;5.10;1.80;;;;;;;;;;5030376;28;20030;-76
2021/08/10 12:01:13;;;;;;;5.22;2.08;;;;;;;;;;5030306;28;20030;-76
2021/08/10 12:03:39;;;;;;;4.43;1.92;;;;;;;;;;5031594;28;20116;-75
2021/08/10 12:06:05;;;;;;;4.45;1.55;;;;;;;;;;5031537;28;20037;-75
2021/08/10 12:08:31;;;;;;;5.03;1.95;;;;;;;;;;5044727;28;20380;-78
2021/08/10 12:10:58;;;;;;;4.20;1.70;;;;;;;;;;5049853;28;20032;-79
2021/08/10 12:13:25;;;;;;;6.10;2.30;;;;;;;;;;5050048;28;20032;-78
2021/08/10 12:15:51;;;;;;;5.03;2.03;;;;;;;;;;5046782;28;20068;-78
2021/08/10 12:18:18;;;;;;;5.57;2.15;;;;;;;;;;5031676;28;20029;-78
2021/08/10 12:21:00;;;;;;;4.55;2.28;;;;;;;;;;5031528;28;20083;-78
2021/08/10 12:23:37;;;;;;;5.93;2.33;;;;;;;;;;5032161;28;20022;-78
2021/08/10 12:26:10;;;;;;;9.45;1.85;;;;;;;;;;5046730;28;20049;-80
2021/08/10 12:28:50;;;;;;;5.70;1.88;;;;;;;;;;5031563;28;20512;-79
2021/08/10 12:31:16;;;;;;;4.35;1.73;;;;;;;;;;5046709;28;20445;-80
2021/08/10 12:33:47;;;;;;;8.18;2.50;;;;;;;;;;5046459;28;20021;-79
2021/08/10 12:36:13;;;;;;;5.30;1.90;;;;;;;;;;5031509;28;20037;-75
2021/08/10 12:38:39;;;;;;;5.53;2.10;;;;;;;;;;5031604;28;20046;-75
2021/08/10 12:41:06;;;;;;;3.88;1.63;;;;;;;;;;5032264;28;20391;-74
2021/08/10 12:43:32;;;;;;;4.78;1.70;;;;;;;;;;5035025;28;20025;-74
2021/08/10 12:45:58;;;;;;;5.80;2.00;;;;;;;;;;5039507;28;20037;-74
2021/08/10 12:48:27;;;;;;;4.15;1.73;;;;;;;;;;5054054;28;20033;-74
2021/08/10 12:50:55;;;;;;;10.10;2.55;;;;;;;;;;5055047;28;20032;-73
2021/08/10 12:53:31;;;;;;;5.78;2.10;;;;;;;;;;5053811;28;20021;-74
2021/08/10 12:55:59;;;;;;;7.20;1.90;;;;;;;;;;5055100;28;20096;-74
2021/08/10 12:58:26;;;;;;;7.63;2.40;;;;;;;;;;5039171;28;20060;-77
2021/08/10 13:00:58;;;;;;;13.18;2.38;;;;;;;;;;5043201;28;20116;-73
2021/08/10 13:03:25;;;;;;;6.20;1.77;;;;;;;;;;5034589;28;20480;-75
2021/08/10 13:05:51;;;;;;;8.13;2.30;;;;;;;;;;5033588;28;20044;-75
2021/08/10 13:08:17;;;;;;;7.75;2.35;;;;;;;;;;5033642;28;20097;-75
2021/08/10 13:10:44;;;;;;;4.82;2.20;;;;;;;;;;5033108;28;20025;-76
2021/08/10 13:13:11;;;;;;;6.15;2.25;;;;;;;;;;5033494;28;20022;-74
2021/08/10 13:15:40;;;;;;;5.68;2.03;;;;;;;;;;5045362;28;20110;-73
2021/08/10 13:18:16;;;;;;;4.07;1.80;;;;;;;;;;5055087;28;20028;-74
2021/08/10 13:20:49;;;;;;;5.20;1.95;;;;;;;;;;5055006;28;20104;-73
2021/08/10 13:23:15;;;;;;;5.47;1.90;;;;;;;;;;5053746;28;20025;-76
2021/08/10 13:25:51;;;;;;;7.07;1.90;;;;;;;;;;5054457;28;20502;-74
2021/08/10 13:28:18;;;;;;;9.70;2.13;;;;;;;;;;5054690;28;20028;-74
2021/08/10 13:30:44;;;;;;;5.03;1.83;;;;;;;;;;5054514;28;20078;-73
2021/08/10 13:33:10;;;;;;;3.97;1.80;;;;;;;;;;5054486;28;20032;-74
2021/08/10 13:35:37;;;;;;;3.38;1.55;;;;;;;;;;5054437;28;20096;-74
2021/08/10 13:38:04;;;;;;;3.50;1.83;;;;;;;;;;5053061;28;20392;-75
2021/08/10 13:40:31;;;;;;;3.75;1.58;;;;;;;;;;5053225;28;20097;-73
2021/08/10 13:42:57;;;;;;;4.10;1.60;;;;;;;;;;5054512;28;20051;-75
2021/08/10 13:45:24;;;;;;;4.10;1.45;;;;;;;;;;5054130;28;20033;-75
2021/08/10 13:47:53;;;;;;;3.65;1.63;;;;;;;;;;5054100;28;20028;-75
2021/08/10 13:50:20;;;;;;;5.45;1.58;;;;;;;;;;5054061;28;20021;-76
2021/08/10 13:52:46;;;;;;;3.90;1.40;;;;;;;;;;5051796;28;20116;-75
2021/08/10 13:55:13;;;;;;;3.83;1.50;;;;;;;;;;5052678;28;20032;-74
2021/08/10 13:57:41;;;;;;;4.80;1.80;;;;;;;;;;5052550;28;20036;-76
2021/08/10 14:00:07;;;;;;;2.92;1.58;;;;;;;;;;5053720;28;20070;-74
2021/08/10 14:02:36;;;;;;;4.00;1.77;;;;;;;;;;5053739;28;20472;-74
2021/08/10 14:05:02;;;;;;;4.43;1.70;;;;;;;;;;5052436;28;20043;-74
2021/08/10 14:07:28;;;;;;;3.92;1.52;;;;;;;;;;5053928;28;20021;-74
2021/08/10 14:09:54;;;;;;;3.08;1.30;;;;;;;;;;5052551;28;20068;-74
2021/08/10 14:12:20;;;;;;;3.25;1.45;;;;;;;;;;5052722;28;20021;-74
2021/08/10 14:14:46;;;;;;;3.38;1.55;;;;;;;;;;5052362;28;20033;-74
2021/08/10 14:17:12;;;;;;;5.80;1.52;;;;;;;;;;5052429;28;20064;-75
2021/08/10 14:19:38;;;;;;;3.80;1.50;;;;;;;;;;5053815;28;20471;-74
2021/08/10 14:22:05;;;;;;;3.20;1.50;;;;;;;;;;5054002;28;20067;-76
2021/08/10 14:24:31;;;;;;;4.65;1.73;;;;;;;;;;5054180;28;20082;-74
2021/08/10 14:26:57;;;;;;;3.47;1.58;;;;;;;;;;5053023;28;20383;-75
2021/08/10 14:29:23;;;;;;;3.08;1.50;;;;;;;;;;5054469;28;20025;-74
2021/08/10 14:31:49;;;;;;;4.25;1.48;;;;;;;;;;5052796;28;20361;-76
2021/08/10 14:34:15;;;;;;;5.40;1.52;;;;;;;;;;5053979;28;20031;-75
2021/08/10 14:36:41;;;;;;;6.90;1.55;;;;;;;;;;5053926;28;20379;-76
2021/08/10 14:39:09;;;;;;;5.53;1.75;;;;;;;;;;5052839;28;20202;-76
2021/08/10 14:41:35;;;;;;;3.08;1.40;;;;;;;;;;5052149;28;20021;-73
2021/08/10 14:44:01;;;;;;;5.35;1.98;;;;;;;;;;5051706;28;20526;-76